Time;durP1;ratioP1;P1;durP2;ratioP2;P2;SDS_P1;SDS_P2;PMS_P1;PMS_P2;Temp;Humidity;BMP_temperature;BMP_pressure;BME280_temperature;BME280_humidity;BME280_pressure;Samples;Min_cycle;Max_cycle;Signal;HPM_P1;HPM_P2
2023/10/15 00:00:46;;;;;;;5.53;5.33;;;12.00;99.90;;;;;;5094542;28;20477;-82
2023/10/15 00:03:14;;;;;;;6.47;6.17;;;12.00;99.90;;;;;;5095287;28;20461;-85
2023/10/15 00:05:43;;;;;;;5.50;5.30;;;12.00;99.90;;;;;;5093507;28;20478;-81
2023/10/15 00:08:11;;;;;;;5.70;5.40;;;11.90;99.90;;;;;;5092312;28;21164;-83
2023/10/15 00:10:40;;;;;;;5.23;5.03;;;11.90;99.90;;;;;;5096150;28;20465;-82
2023/10/15 00:13:08;;;;;;;6.00;5.80;;;12.00;99.90;;;;;;5095085;28;20536;-81
2023/10/15 00:15:39;;;;;;;6.47;6.07;;;12.00;99.90;;;;;;5092664;28;20861;-81
2023/10/15 00:18:10;;;;;;;6.10;5.73;;;11.90;99.90;;;;;;5094983;28;21010;-82
2023/10/15 00:20:40;;;;;;;6.57;5.97;;;11.90;99.90;;;;;;5093884;28;20478;-82
2023/10/15 00:23:13;;;;;;;5.27;5.07;;;11.90;99.90;;;;;;5094513;28;20453;-83
2023/10/15 00:25:47;;;;;;;5.17;4.97;;;11.90;99.90;;;;;;5092251;28;21948;-82
2023/10/15 00:28:16;;;;;;;6.27;5.83;;;11.90;99.90;;;;;;5096510;28;20445;-82
2023/10/15 00:30:45;;;;;;;5.57;5.37;;;11.90;99.90;;;;;;5093970;28;20565;-82
2023/10/15 00:33:16;;;;;;;5.87;5.57;;;11.80;99.90;;;;;;5097875;28;20466;-82
2023/10/15 00:35:45;;;;;;;5.50;5.20;;;11.70;99.90;;;;;;5092645;28;20474;-83
2023/10/15 00:38:17;;;;;;;7.00;5.67;;;11.70;99.90;;;;;;5094912;28;20740;-79
2023/10/15 00:40:49;;;;;;;5.43;5.13;;;11.70;99.90;;;;;;5101443;28;20480;-81
2023/10/15 00:43:18;;;;;;;5.77;5.47;;;11.70;99.90;;;;;;5095488;28;20446;-82
2023/10/15 00:45:46;;;;;;;6.00;5.47;;;11.80;99.90;;;;;;5105326;28;20486;-81
2023/10/15 00:48:24;;;;;;;5.73;5.40;;;11.70;99.90;;;;;;5101676;28;20489;-82
2023/10/15 00:50:55;;;;;;;5.67;5.33;;;11.70;99.90;;;;;;5100968;28;20488;-83
2023/10/15 00:53:27;;;;;;;5.60;5.40;;;11.60;99.90;;;;;;5100145;28;20458;-81
2023/10/15 00:56:01;;;;;;;6.03;4.90;;;11.60;99.90;;;;;;5098515;28;20478;-82
2023/10/15 00:58:39;;;;;;;5.47;5.17;;;11.60;99.90;;;;;;5099131;28;20447;-82
2023/10/15 01:01:26;;;;;;;8.47;5.40;;;11.60;99.90;;;;;;5097557;28;20503;-82
2023/10/15 01:03:59;;;;;;;5.50;5.20;;;11.60;99.90;;;;;;5102664;28;20549;-82
2023/10/15 01:06:35;;;;;;;5.70;5.50;;;11.50;99.90;;;;;;5098622;28;20569;-81
2023/10/15 01:09:09;;;;;;;5.70;5.20;;;11.60;99.90;;;;;;5102826;28;20490;-81
2023/10/15 01:11:43;;;;;;;5.97;5.60;;;11.60;99.90;;;;;;5102867;28;20474;-81
2023/10/15 01:14:13;;;;;;;5.30;5.13;;;11.70;99.90;;;;;;5101849;27;20514;-82
2023/10/15 01:16:42;;;;;;;6.00;5.70;;;11.70;99.90;;;;;;5101338;27;21232;-81
2023/10/15 01:19:19;;;;;;;6.20;5.90;;;11.70;99.90;;;;;;5102124;28;20478;-81
2023/10/15 01:21:53;;;;;;;5.93;5.50;;;11.80;99.90;;;;;;5099953;28;20510;-82
2023/10/15 01:24:22;;;;;;;5.63;5.43;;;11.80;99.90;;;;;;5098181;28;20975;-81
2023/10/15 01:27:05;;;;;;;5.50;5.27;;;11.80;99.90;;;;;;5098929;27;20477;-82
2023/10/15 01:29:33;;;;;;;5.20;5.10;;;11.80;99.90;;;;;;5094689;28;20457;-83
2023/10/15 01:32:03;;;;;;;5.20;4.80;;;11.80;99.90;;;;;;5096901;28;20474;-82
2023/10/15 01:34:37;;;;;;;5.20;5.00;;;11.80;99.90;;;;;;5097446;28;20456;-81
2023/10/15 01:37:15;;;;;;;5.50;5.17;;;11.80;99.90;;;;;;5097391;28;20458;-83
2023/10/15 01:39:48;;;;;;;5.30;5.00;;;11.80;99.90;;;;;;5094597;28;20450;-82
2023/10/15 01:42:40;;;;;;;5.67;5.20;;;11.80;99.90;;;;;;5098707;28;20474;-81
2023/10/15 01:45:13;;;;;;;5.20;5.00;;;11.80;99.90;;;;;;5094664;28;21682;-83
2023/10/15 01:48:01;;;;;;;5.47;5.27;;;11.90;99.90;;;;;;5096451;28;20461;-83
2023/10/15 01:50:33;;;;;;;5.93;5.20;;;12.00;99.90;;;;;;5096421;28;20536;-82
2023/10/15 01:53:03;;;;;;;5.70;5.40;;;11.90;99.90;;;;;;5096998;28;20476;-82
2023/10/15 01:55:35;;;;;;;5.57;5.20;;;11.90;99.90;;;;;;5096247;28;20596;-81
2023/10/15 01:58:12;;;;;;;5.87;5.23;;;11.90;99.90;;;;;;5094161;28;20454;-81
2023/10/15 02:00:44;;;;;;;5.60;5.40;;;12.00;99.90;;;;;;5094873;28;20908;-80
2023/10/15 02:03:12;;;;;;;5.60;5.20;;;12.00;99.90;;;;;;5094855;28;20457;-81
2023/10/15 02:05:44;;;;;;;5.50;5.20;;;12.00;99.90;;;;;;5094753;28;20473;-82
2023/10/15 02:08:13;;;;;;;6.10;5.70;;;11.90;99.90;;;;;;5093244;28;20529;-82
2023/10/15 02:10:46;;;;;;;5.97;5.47;;;12.00;99.90;;;;;;5098737;28;20488;-81
2023/10/15 02:13:17;;;;;;;5.33;5.13;;;12.00;99.90;;;;;;5097459;28;20493;-81
2023/10/15 02:15:46;;;;;;;4.77;4.60;;;12.00;99.90;;;;;;5080525;27;20458;-81
2023/10/15 02:18:17;;;;;;;5.43;5.03;;;12.00;99.90;;;;;;5096563;28;20971;-82
2023/10/15 02:20:47;;;;;;;5.13;4.83;;;12.10;99.90;;;;;;5093648;28;20567;-81
2023/10/15 02:23:18;;;;;;;5.73;5.33;;;12.00;99.90;;;;;;5095687;28;20457;-81
2023/10/15 02:25:47;;;;;;;5.07;4.70;;;12.00;99.90;;;;;;5095123;28;20497;-81
2023/10/15 02:28:23;;;;;;;5.53;5.07;;;12.00;99.90;;;;;;5094180;27;20458;-82
2023/10/15 02:30:58;;;;;;;5.63;5.33;;;11.90;99.90;;;;;;5096278;28;20481;-82
2023/10/15 02:33:27;;;;;;;5.67;5.23;;;12.00;99.90;;;;;;5092268;28;20483;-82
2023/10/15 02:35:58;;;;;;;6.30;5.70;;;12.00;99.90;;;;;;5093104;28;20453;-83
2023/10/15 02:38:26;;;;;;;5.50;5.10;;;12.00;99.90;;;;;;5094916;28;20460;-82
2023/10/15 02:41:03;;;;;;;4.97;4.80;;;11.90;99.90;;;;;;5096285;28;20473;-82
2023/10/15 02:43:36;;;;;;;5.87;5.50;;;12.00;99.90;;;;;;5092842;28;20449;-82
2023/10/15 02:46:19;;;;;;;5.97;5.37;;;12.00;99.90;;;;;;5092596;28;20477;-82
2023/10/15 02:48:49;;;;;;;5.53;5.20;;;12.00;99.90;;;;;;5095219;28;20450;-82
2023/10/15 02:51:23;;;;;;;5.63;5.17;;;11.90;99.90;;;;;;5093138;27;20469;-83
2023/10/15 02:53:53;;;;;;;5.63;5.43;;;11.90;99.90;;;;;;5092929;28;20512;-82
2023/10/15 02:56:23;;;;;;;5.77;5.50;;;12.00;99.90;;;;;;5092721;28;20445;-82
2023/10/15 02:58:54;;;;;;;5.77;5.57;;;12.00;99.90;;;;;;5095741;28;21201;-82
2023/10/15 03:01:24;;;;;;;6.00;5.63;;;12.00;99.90;;;;;;5093377;28;20477;-83
2023/10/15 03:03:54;;;;;;;5.70;5.40;;;12.00;99.90;;;;;;5094945;28;20457;-83
2023/10/15 03:06:28;;;;;;;5.77;5.47;;;12.00;99.90;;;;;;5092582;28;20617;-82
2023/10/15 03:08:57;;;;;;;6.20;5.90;;;12.00;99.90;;;;;;5092309;28;20457;-82
2023/10/15 03:11:32;;;;;;;6.50;6.10;;;12.00;99.90;;;;;;5091616;28;20478;-83
2023/10/15 03:14:03;;;;;;;5.83;5.53;;;12.00;99.90;;;;;;5091861;28;20459;-82
2023/10/15 03:16:33;;;;;;;5.70;5.40;;;11.90;99.90;;;;;;5093667;28;20461;-81
2023/10/15 03:19:09;;;;;;;6.27;5.77;;;11.90;99.90;;;;;;5095568;28;20453;-82
2023/10/15 03:21:39;;;;;;;6.33;5.93;;;11.90;99.90;;;;;;5093302;28;20587;-81
2023/10/15 03:24:07;;;;;;;6.47;6.17;;;11.90;99.90;;;;;;5091642;28;20454;-82
2023/10/15 03:26:37;;;;;;;6.13;5.93;;;12.00;99.90;;;;;;5088315;28;20473;-83
2023/10/15 03:29:09;;;;;;;6.10;5.90;;;12.00;99.90;;;;;;5094196;28;20491;-81
2023/10/15 03:31:38;;;;;;;6.20;5.93;;;11.90;99.90;;;;;;5091376;28;20457;-80
2023/10/15 03:34:21;;;;;;;5.70;5.50;;;12.00;99.90;;;;;;5095034;28;20435;-81
2023/10/15 03:36:51;;;;;;;5.80;5.60;;;12.00;99.90;;;;;;5095199;28;20472;-82
2023/10/15 03:39:25;;;;;;;5.97;5.77;;;12.00;99.90;;;;;;5091903;28;20620;-82
2023/10/15 03:41:54;;;;;;;5.70;5.50;;;12.00;99.90;;;;;;5099497;28;20486;-81
2023/10/15 03:44:27;;;;;;;7.67;6.00;;;12.00;99.90;;;;;;5094104;28;20462;-82
2023/10/15 03:47:04;;;;;;;5.63;5.43;;;11.90;99.90;;;;;;5095097;28;20568;-82
2023/10/15 03:49:33;;;;;;;6.30;5.97;;;12.00;99.90;;;;;;5095080;28;20463;-82
2023/10/15 03:52:07;;;;;;;5.90;5.60;;;12.00;99.90;;;;;;5097861;28;20533;-83
2023/10/15 03:54:37;;;;;;;5.80;5.60;;;12.00;99.90;;;;;;5094223;28;20888;-82
2023/10/15 03:57:07;;;;;;;6.33;5.83;;;11.90;99.90;;;;;;5089376;28;20514;-82
2023/10/15 03:59:42;;;;;;;6.33;5.80;;;11.80;99.90;;;;;;5091998;28;20460;-83
2023/10/15 04:02:22;;;;;;;5.60;5.40;;;11.90;99.90;;;;;;5090032;28;20481;-82
2023/10/15 04:04:56;;;;;;;5.90;5.70;;;11.90;99.90;;;;;;5095492;28;20566;-84
2023/10/15 04:07:25;;;;;;;6.67;6.20;;;11.90;99.90;;;;;;5096135;28;20514;-82
2023/10/15 04:09:53;;;;;;;6.03;5.83;;;11.80;99.90;;;;;;5096840;28;20525;-82
2023/10/15 04:12:21;;;;;;;5.97;5.47;;;11.80;99.90;;;;;;5093505;28;21261;-80
2023/10/15 04:14:51;;;;;;;6.67;6.37;;;11.80;99.90;;;;;;5090038;28;20845;-81
2023/10/15 04:17:20;;;;;;;6.67;6.23;;;11.90;99.90;;;;;;5095988;28;20456;-81
2023/10/15 04:19:48;;;;;;;6.50;6.20;;;11.90;99.90;;;;;;5095648;28;20453;-81
2023/10/15 04:22:17;;;;;;;7.27;6.87;;;11.90;99.90;;;;;;5094973;28;20477;-83
2023/10/15 04:24:46;;;;;;;6.03;5.83;;;11.90;99.90;;;;;;5095002;28;20454;-83
2023/10/15 04:27:19;;;;;;;7.03;6.57;;;11.90;99.90;;;;;;5096051;28;20472;-82
2023/10/15 04:29:52;;;;;;;7.50;6.90;;;12.00;99.90;;;;;;5094820;28;20450;-82
2023/10/15 04:32:45;;;;;;;6.60;6.30;;;12.00;99.90;;;;;;5095061;28;20465;-82
2023/10/15 04:35:17;;;;;;;6.60;6.30;;;12.00;99.90;;;;;;5095589;28;20485;-81
2023/10/15 04:37:46;;;;;;;6.60;6.30;;;12.00;99.90;;;;;;5104669;28;20446;-81
2023/10/15 04:40:22;;;;;;;6.00;5.80;;;12.10;99.90;;;;;;5104356;28;20454;-83
2023/10/15 04:42:50;;;;;;;6.40;6.20;;;12.00;99.90;;;;;;5102229;28;20445;-81
2023/10/15 04:45:24;;;;;;;6.63;6.43;;;12.10;99.90;;;;;;5098486;28;20500;-82
2023/10/15 04:47:59;;;;;;;6.47;6.07;;;12.10;99.90;;;;;;5101712;28;20465;-82
2023/10/15 04:50:29;;;;;;;6.43;6.23;;;12.20;99.90;;;;;;5101904;28;20435;-82
2023/10/15 04:53:12;;;;;;;6.20;6.00;;;12.10;99.90;;;;;;5100884;28;20465;-83
2023/10/15 04:55:41;;;;;;;7.00;6.27;;;12.10;99.90;;;;;;5099529;28;20461;-82
2023/10/15 04:58:09;;;;;;;7.67;7.13;;;12.10;99.90;;;;;;5098611;28;20994;-82
2023/10/15 05:00:41;;;;;;;6.73;6.47;;;12.10;99.90;;;;;;5099524;28;20481;-81
2023/10/15 05:03:11;;;;;;;7.40;6.90;;;12.00;99.90;;;;;;5098026;28;20458;-83
2023/10/15 05:05:42;;;;;;;6.93;6.63;;;12.00;99.90;;;;;;5098289;28;20864;-83
2023/10/15 05:08:11;;;;;;;7.90;7.40;;;12.00;99.90;;;;;;5096759;28;20540;-83
2023/10/15 05:10:44;;;;;;;7.30;6.90;;;12.00;99.90;;;;;;5098648;28;20469;-82
2023/10/15 05:13:14;;;;;;;6.70;6.50;;;12.10;99.90;;;;;;5097900;28;20528;-81
2023/10/15 05:15:43;;;;;;;7.40;6.90;;;12.10;99.90;;;;;;5093799;28;20458;-84
2023/10/15 05:18:13;;;;;;;7.23;6.83;;;12.00;99.90;;;;;;5092380;28;20476;-82
2023/10/15 05:20:41;;;;;;;7.70;7.03;;;11.90;99.90;;;;;;5097023;28;20469;-81
2023/10/15 05:23:10;;;;;;;7.30;7.00;;;11.90;99.90;;;;;;5095567;28;20458;-82
2023/10/15 05:25:39;;;;;;;7.10;6.70;;;11.80;99.90;;;;;;5096029;28;20453;-82
2023/10/15 05:28:09;;;;;;;6.87;6.47;;;11.90;99.90;;;;;;5097636;27;20457;-83
2023/10/15 05:30:39;;;;;;;7.40;6.90;;;11.90;99.90;;;;;;5097072;28;20485;-82
2023/10/15 05:33:07;;;;;;;7.17;6.77;;;12.00;99.90;;;;;;5099933;28;21340;-83
2023/10/15 05:35:40;;;;;;;7.10;6.80;;;11.90;99.90;;;;;;5101683;28;20550;-82
2023/10/15 05:38:09;;;;;;;7.47;7.07;;;11.90;99.90;;;;;;5098789;28;20526;-83
2023/10/15 05:40:38;;;;;;;7.93;7.40;;;11.90;99.90;;;;;;5100462;28;20450;-83
2023/10/15 05:43:07;;;;;;;7.00;6.70;;;11.90;99.90;;;;;;5094326;28;20483;-83
2023/10/15 05:45:35;;;;;;;7.37;6.97;;;11.90;99.90;;;;;;5095616;28;21012;-83
2023/10/15 05:48:04;;;;;;;7.27;6.93;;;11.90;99.90;;;;;;5096966;28;20470;-84
2023/10/15 05:50:33;;;;;;;7.20;6.80;;;11.80;99.90;;;;;;5095665;28;21313;-83
2023/10/15 05:53:02;;;;;;;7.40;7.00;;;11.90;99.90;;;;;;5093139;28;20464;-84
2023/10/15 05:55:32;;;;;;;7.43;6.73;;;11.80;99.90;;;;;;5097156;28;20871;-84
2023/10/15 05:58:00;;;;;;;7.33;6.93;;;11.80;99.90;;;;;;5094526;28;20454;-82
2023/10/15 06:00:29;;;;;;;7.70;7.30;;;11.90;1.00;;;;;;5098413;28;20462;-80
2023/10/15 06:02:58;;;;;;;7.93;7.40;;;11.80;1.00;;;;;;5091127;28;21217;-81
2023/10/15 06:05:28;;;;;;;8.47;7.97;;;11.80;1.00;;;;;;5092152;28;20450;-81
2023/10/15 06:07:56;;;;;;;8.37;7.80;;;11.80;1.00;;;;;;5098151;28;20971;-81
2023/10/15 06:10:29;;;;;;;8.38;7.75;;;11.80;1.00;;;;;;5093344;28;20550;-80
2023/10/15 06:12:58;;;;;;;8.07;7.67;;;11.50;1.00;;;;;;5096728;28;20192;-81
2023/10/15 06:15:26;;;;;;;7.63;7.30;;;11.70;1.00;;;;;;5096609;28;20969;-81
2023/10/15 06:17:54;;;;;;;8.17;7.77;;;11.90;1.00;;;;;;5094521;28;20679;-80
2023/10/15 06:20:24;;;;;;;7.80;7.50;;;11.90;1.00;;;;;;5091894;27;20453;-82
2023/10/15 06:22:55;;;;;;;7.47;7.17;;;11.90;1.00;;;;;;5096409;28;20443;-81
2023/10/15 06:25:26;;;;;;;7.83;7.20;;;11.90;1.00;;;;;;5095292;28;20542;-80
2023/10/15 06:27:54;;;;;;;7.77;7.47;;;12.00;1.00;;;;;;5100956;27;20478;-82
2023/10/15 06:30:22;;;;;;;7.77;7.47;;;12.00;1.00;;;;;;5098454;28;20463;-81
2023/10/15 06:32:53;;;;;;;7.83;7.53;;;12.00;1.00;;;;;;5096596;28;20481;-81
2023/10/15 06:35:23;;;;;;;7.93;7.30;;;12.00;1.00;;;;;;5094446;28;20446;-82
2023/10/15 06:37:55;;;;;;;7.63;7.00;;;12.00;1.00;;;;;;5098329;27;20433;-82
2023/10/15 06:40:26;;;;;;;7.40;7.10;;;12.10;1.00;;;;;;5091140;28;20990;-83
2023/10/15 06:43:00;;;;;;;8.23;7.73;;;12.10;1.00;;;;;;5096443;28;20557;-83
2023/10/15 06:45:29;;;;;;;7.23;6.90;;;12.10;1.00;;;;;;5096088;28;20513;-84
2023/10/15 06:47:58;;;;;;;7.20;7.00;;;12.10;1.00;;;;;;5097359;28;20704;-83
2023/10/15 06:50:27;;;;;;;8.10;7.60;;;12.10;1.00;;;;;;5095333;27;20456;-84
2023/10/15 06:52:55;;;;;;;7.87;7.43;;;11.80;1.00;;;;;;5093036;28;20200;-83
2023/10/15 06:55:24;;;;;;;7.90;7.53;;;12.00;1.00;;;;;;5093673;28;20450;-83
2023/10/15 06:57:54;;;;;;;8.53;8.13;;;12.10;1.00;;;;;;5092815;28;20868;-83
2023/10/15 07:00:22;;;;;;;7.47;7.03;;;12.10;1.00;;;;;;5094988;28;20449;-83
2023/10/15 07:02:51;;;;;;;8.37;8.00;;;12.10;1.00;;;;;;5094321;28;20469;-82
2023/10/15 07:05:20;;;;;;;8.10;7.80;;;12.10;1.00;;;;;;5095274;28;20441;-84
2023/10/15 07:07:49;;;;;;;8.00;7.50;;;12.10;1.00;;;;;;5090510;28;20442;-83
2023/10/15 07:10:18;;;;;;;7.87;7.57;;;12.10;1.00;;;;;;5094841;28;20497;-84
2023/10/15 07:12:50;;;;;;;8.87;8.40;;;12.20;1.00;;;;;;5096255;28;20546;-83
2023/10/15 07:15:21;;;;;;;7.67;7.37;;;12.20;1.00;;;;;;5096313;28;20491;-85
2023/10/15 07:17:50;;;;;;;8.40;7.90;;;12.30;99.90;;;;;;5097408;28;20826;-84
2023/10/15 07:20:21;;;;;;;8.00;7.70;;;12.20;1.00;;;;;;5094898;28;20441;-82
2023/10/15 07:22:51;;;;;;;8.60;8.03;;;12.20;1.00;;;;;;5097458;28;20443;-83
2023/10/15 07:25:20;;;;;;;9.03;8.40;;;12.30;1.00;;;;;;5094279;28;20446;-85
2023/10/15 07:27:50;;;;;;;7.97;7.50;;;12.30;99.90;;;;;;5092247;28;20446;-84
2023/10/15 07:30:20;;;;;;;7.70;7.50;;;12.40;99.90;;;;;;5093705;28;20474;-82
2023/10/15 07:32:50;;;;;;;8.60;8.10;;;12.40;99.90;;;;;;5092480;28;20956;-83
2023/10/15 07:35:18;;;;;;;8.50;8.00;;;12.20;99.90;;;;;;5093097;28;20448;-84
2023/10/15 07:37:49;;;;;;;8.45;8.07;;;12.30;99.90;;;;;;5098470;27;20436;-82
2023/10/15 07:40:21;;;;;;;8.93;8.40;;;12.80;99.90;;;;;;5094409;28;20539;-84
2023/10/15 07:42:52;;;;;;;9.00;8.60;;;13.10;99.90;;;;;;5089996;28;20446;-82
2023/10/15 07:45:26;;;;;;;8.13;7.60;;;13.20;99.90;;;;;;5084906;28;20229;-79
2023/10/15 07:47:59;;;;;;;8.27;7.70;;;13.60;99.90;;;;;;5085978;28;20503;-83
2023/10/15 07:50:28;;;;;;;8.20;7.70;;;13.60;99.90;;;;;;5081331;28;20229;-83
2023/10/15 07:52:57;;;;;;;8.97;8.63;;;14.10;99.90;;;;;;5091957;28;20459;-83
2023/10/15 07:55:26;;;;;;;8.90;8.57;;;14.50;99.90;;;;;;5093507;28;20481;-85
2023/10/15 07:57:55;;;;;;;8.27;7.83;;;14.90;99.90;;;;;;5093863;28;20959;-85
2023/10/15 08:00:26;;;;;;;8.67;8.07;;;15.30;99.90;;;;;;5090974;28;20453;-84
2023/10/15 08:02:57;;;;;;;8.90;8.40;;;15.70;99.90;;;;;;5092475;28;20484;-85
2023/10/15 08:05:28;;;;;;;8.47;8.07;;;16.00;99.90;;;;;;5098128;28;20525;-85
2023/10/15 08:07:58;;;;;;;8.03;7.60;;;16.10;99.90;;;;;;5095663;28;20496;-85
2023/10/15 08:10:32;;;;;;;7.80;7.20;;;16.40;99.90;;;;;;5096297;28;21007;-86
2023/10/15 08:13:01;;;;;;;6.97;6.67;;;16.30;99.90;;;;;;5099054;28;20442;-85
2023/10/15 08:15:33;;;;;;;7.10;6.77;;;16.00;99.90;;;;;;5092314;28;20496;-85
2023/10/15 08:18:02;;;;;;;6.30;6.10;;;15.70;99.90;;;;;;5097111;28;20446;-84
2023/10/15 08:20:31;;;;;;;6.40;6.03;;;15.30;99.90;;;;;;5098150;28;20438;-84
2023/10/15 08:23:00;;;;;;;5.90;5.60;;;15.10;99.90;;;;;;5094858;28;20464;-84
2023/10/15 08:25:31;;;;;;;6.43;6.00;;;15.20;99.90;;;;;;5093467;28;20548;-85
2023/10/15 08:28:01;;;;;;;5.97;5.67;;;15.30;99.90;;;;;;5104104;28;20437;-85
2023/10/15 08:30:34;;;;;;;5.70;5.50;;;15.90;99.90;;;;;;5098880;28;20461;-85
2023/10/15 08:33:10;;;;;;;6.03;5.83;;;16.40;99.90;;;;;;5098439;28;20450;-85
2023/10/15 08:35:39;;;;;;;6.10;5.70;;;17.10;99.90;;;;;;5100783;28;20940;-85
2023/10/15 08:38:08;;;;;;;6.50;6.10;;;17.40;99.90;;;;;;5092785;28;20442;-84
2023/10/15 08:40:40;;;;;;;6.33;5.87;;;17.50;99.90;;;;;;5096151;28;20438;-84
2023/10/15 08:43:13;;;;;;;7.13;6.23;;;17.40;99.90;;;;;;5096698;28;20533;-85
2023/10/15 08:45:45;;;;;;;6.97;6.30;;;17.80;99.90;;;;;;5098886;28;20460;-85
2023/10/15 08:48:15;;;;;;;6.20;6.00;;;18.70;99.90;;;;;;5100963;28;20794;-85
2023/10/15 08:50:45;;;;;;;6.03;5.67;;;19.40;99.90;;;;;;5097215;28;20913;-86
2023/10/15 08:53:14;;;;;;;6.97;6.57;;;19.50;99.90;;;;;;5099314;28;20492;-85
2023/10/15 08:55:42;;;;;;;6.47;6.07;;;19.90;99.90;;;;;;5089656;28;20472;-85
2023/10/15 08:58:11;;;;;;;6.60;6.00;;;20.20;99.90;;;;;;5091585;28;20450;-85
2023/10/15 09:00:43;;;;;;;5.97;5.67;;;20.40;99.90;;;;;;5103647;28;20528;-85
2023/10/15 09:03:13;;;;;;;5.17;4.87;;;19.90;99.00;;;;;;5098918;28;20994;-84
2023/10/15 09:05:43;;;;;;;5.50;5.20;;;19.10;92.80;;;;;;5102446;28;20449;-84
2023/10/15 09:08:14;;;;;;;5.40;4.90;;;18.20;87.70;;;;;;5100588;28;20456;-85
2023/10/15 09:10:43;;;;;;;5.77;5.37;;;17.60;80.30;;;;;;5100058;28;20492;-84
2023/10/15 09:13:15;;;;;;;5.20;4.90;;;17.10;78.80;;;;;;5103840;28;20830;-86
2023/10/15 09:15:48;;;;;;;5.47;5.00;;;16.60;73.40;;;;;;5103880;28;20449;-84
2023/10/15 09:18:17;;;;;;;5.20;4.80;;;16.40;71.10;;;;;;5101420;28;21336;-84
2023/10/15 09:20:50;;;;;;;5.27;5.07;;;16.10;71.00;;;;;;5098199;28;20459;-85
2023/10/15 09:23:21;;;;;;;6.03;5.47;;;15.80;72.10;;;;;;5103573;28;20537;-85
2023/10/15 09:25:53;;;;;;;7.57;5.07;;;15.60;70.50;;;;;;5101410;28;20450;-84
2023/10/15 09:28:27;;;;;;;4.77;4.50;;;15.50;71.90;;;;;;5099461;28;20465;-88
2023/10/15 09:31:05;;;;;;;5.13;4.83;;;15.60;74.40;;;;;;5098781;28;20469;-84
2023/10/15 09:33:34;;;;;;;5.40;4.90;;;15.50;77.10;;;;;;5106736;28;20447;-84
2023/10/15 09:36:03;;;;;;;5.90;5.43;;;15.40;79.40;;;;;;5103754;28;20462;-85
2023/10/15 09:38:32;;;;;;;4.83;4.60;;;15.30;80.30;;;;;;5099146;28;20453;-85
2023/10/15 09:41:02;;;;;;;5.10;4.67;;;15.20;77.60;;;;;;5102856;28;20469;-85
2023/10/15 09:43:31;;;;;;;5.00;4.60;;;15.00;74.50;;;;;;5106123;28;20989;-85
2023/10/15 09:46:00;;;;;;;4.33;4.10;;;14.90;70.60;;;;;;5097341;28;20453;-84
2023/10/15 09:48:33;;;;;;;4.83;4.57;;;14.90;72.90;;;;;;5102446;28;20451;-85
2023/10/15 09:51:04;;;;;;;4.47;4.27;;;15.40;86.90;;;;;;5101635;28;20478;-84
2023/10/15 09:53:35;;;;;;;5.00;4.60;;;15.70;81.90;;;;;;5101157;28;20445;-83
2023/10/15 09:56:07;;;;;;;4.90;4.50;;;15.70;83.40;;;;;;5100801;28;20464;-84
2023/10/15 09:58:37;;;;;;;4.90;4.60;;;15.80;80.00;;;;;;5103335;28;20458;-84
2023/10/15 10:01:09;;;;;;;5.20;4.80;;;15.80;78.10;;;;;;5097410;28;20474;-84
2023/10/15 10:04:04;;;;;;;4.67;4.47;;;16.00;79.70;;;;;;5102884;28;20469;-84
2023/10/15 10:07:00;;;;;;;5.00;4.80;;;16.10;76.60;;;;;;5099181;28;20450;-85
2023/10/15 10:09:48;;;;;;;5.70;4.53;;;16.40;79.80;;;;;;5090399;28;20479;-84
2023/10/15 10:12:28;;;;;;;4.50;4.27;;;16.90;85.20;;;;;;5095083;28;20482;-84
2023/10/15 10:15:12;;;;;;;4.83;4.23;;;17.50;85.80;;;;;;5099041;28;20461;-84
2023/10/15 10:17:41;;;;;;;4.10;3.80;;;17.60;76.20;;;;;;5097648;28;20450;-85
2023/10/15 10:20:14;;;;;;;4.37;4.17;;;17.70;71.20;;;;;;5102423;28;20498;-84
2023/10/15 10:22:43;;;;;;;4.30;4.10;;;17.80;70.70;;;;;;5102693;28;20509;-85
2023/10/15 10:25:30;;;;;;;3.20;3.10;;;18.20;70.60;;;;;;5099067;28;20790;-84
2023/10/15 10:28:08;;;;;;;3.00;2.90;;;17.90;60.00;;;;;;5102948;27;20901;-84
2023/10/15 10:30:53;;;;;;;3.10;3.00;;;17.70;54.50;;;;;;5103880;28;20481;-85
2023/10/15 10:33:51;;;;;;;3.97;3.30;;;17.70;55.60;;;;;;5100214;28;20926;-85
2023/10/15 10:36:21;;;;;;;2.83;2.63;;;18.30;64.70;;;;;;5103934;28;20475;-85
2023/10/15 10:39:00;;;;;;;3.13;2.97;;;19.00;66.00;;;;;;5096840;28;20537;-85
2023/10/15 10:41:35;;;;;;;5.97;2.90;;;19.40;68.40;;;;;;5100517;28;20552;-85
2023/10/15 10:44:05;;;;;;;3.10;3.00;;;19.80;68.30;;;;;;5107035;28;20484;-84
2023/10/15 10:46:53;;;;;;;3.83;3.63;;;20.10;68.10;;;;;;5096476;28;20448;-85
2023/10/15 10:49:29;;;;;;;3.83;3.57;;;20.40;70.70;;;;;;5099664;28;20446;-84
2023/10/15 10:52:14;;;;;;;3.83;3.63;;;20.50;64.50;;;;;;5091349;28;20492;-85
2023/10/15 10:54:43;;;;;;;3.43;3.20;;;20.50;60.40;;;;;;5096187;28;20459;-85
2023/10/15 10:57:11;;;;;;;2.80;2.70;;;19.80;50.50;;;;;;5100893;28;20454;-85
2023/10/15 10:59:42;;;;;;;3.60;3.40;;;19.20;43.80;;;;;;5097010;28;20945;-85
2023/10/15 11:02:13;;;;;;;4.57;4.17;;;19.10;43.10;;;;;;5097106;28;20488;-85
2023/10/15 11:04:42;;;;;;;3.90;3.70;;;19.00;39.80;;;;;;5101360;28;20461;-85
2023/10/15 11:07:13;;;;;;;5.00;3.67;;;19.10;39.30;;;;;;5096559;28;20964;-85
2023/10/15 11:09:42;;;;;;;3.53;3.40;;;18.60;39.20;;;;;;5098203;28;20461;-85
2023/10/15 11:12:11;;;;;;;3.30;3.10;;;18.20;32.80;;;;;;5098529;28;21023;-86
2023/10/15 11:14:40;;;;;;;3.37;3.07;;;18.00;31.80;;;;;;5102937;28;20444;-84
2023/10/15 11:17:09;;;;;;;2.53;2.40;;;17.70;31.30;;;;;;5097422;28;20446;-84
2023/10/15 11:19:39;;;;;;;3.20;3.00;;;17.40;28.80;;;;;;5097685;28;20533;-84
2023/10/15 11:22:08;;;;;;;4.20;2.80;;;17.20;27.40;;;;;;5102913;28;21088;-84
2023/10/15 11:24:38;;;;;;;2.93;2.73;;;17.10;28.20;;;;;;5094853;28;20456;-85
2023/10/15 11:27:11;;;;;;;2.87;2.77;;;17.30;31.90;;;;;;5100364;28;20449;-85
2023/10/15 11:29:43;;;;;;;3.10;2.80;;;17.40;31.80;;;;;;5089794;28;20461;-84
2023/10/15 11:32:12;;;;;;;4.60;4.40;;;17.10;27.00;;;;;;5097040;28;20478;-85
2023/10/15 11:34:41;;;;;;;4.20;4.03;;;17.10;27.70;;;;;;5102734;28;20856;-83
2023/10/15 11:37:10;;;;;;;4.00;3.40;;;16.90;26.30;;;;;;5102657;28;20446;-84
2023/10/15 11:39:43;;;;;;;4.67;4.30;;;16.70;24.10;;;;;;5095399;28;20780;-83
2023/10/15 11:42:11;;;;;;;5.20;4.70;;;16.50;24.20;;;;;;5092915;28;20476;-84
2023/10/15 11:44:43;;;;;;;3.80;3.70;;;16.20;22.60;;;;;;5093833;28;20453;-84
2023/10/15 11:47:15;;;;;;;4.57;4.37;;;15.90;19.40;;;;;;5099190;28;20894;-83
2023/10/15 11:49:45;;;;;;;4.23;4.13;;;15.90;17.70;;;;;;5097469;28;20507;-84
2023/10/15 11:52:16;;;;;;;3.87;3.67;;;15.90;18.20;;;;;;5099962;28;20560;-83
2023/10/15 11:54:49;;;;;;;4.50;4.20;;;15.70;17.20;;;;;;5091990;28;20511;-84
2023/10/15 11:57:22;;;;;;;4.00;3.80;;;15.50;17.20;;;;;;5098312;28;20448;-84
2023/10/15 11:59:51;;;;;;;3.80;3.50;;;15.60;18.30;;;;;;5095020;28;20484;-83
2023/10/15 12:02:25;;;;;;;4.07;3.87;;;15.60;16.10;;;;;;5098063;28;20564;-84
2023/10/15 12:04:56;;;;;;;8.00;3.40;;;15.40;14.30;;;;;;5088974;28;20951;-84
2023/10/15 12:07:28;;;;;;;3.27;3.17;;;15.20;11.90;;;;;;5096924;28;20497;-84
2023/10/15 12:09:59;;;;;;;3.50;3.40;;;15.30;12.50;;;;;;5098638;28;21043;-84
2023/10/15 12:12:28;;;;;;;3.23;3.10;;;15.40;14.40;;;;;;5101825;28;20580;-83
2023/10/15 12:14:57;;;;;;;3.90;3.70;;;15.30;15.80;;;;;;5096735;28;20968;-84
2023/10/15 12:17:25;;;;;;;3.60;3.50;;;15.20;14.80;;;;;;5097022;28;20986;-84
2023/10/15 12:19:54;;;;;;;4.20;4.00;;;15.20;16.00;;;;;;5097931;28;20446;-84
2023/10/15 12:22:42;;;;;;;3.90;3.80;;;15.30;16.90;;;;;;5098823;28;20480;-84
2023/10/15 12:25:12;;;;;;;4.47;4.30;;;15.30;18.50;;;;;;5099275;28;20541;-83
2023/10/15 12:27:40;;;;;;;4.50;4.30;;;15.40;20.50;;;;;;5095950;28;20450;-84
2023/10/15 12:30:17;;;;;;;4.40;4.20;;;15.60;21.90;;;;;;5099677;28;21341;-84
2023/10/15 12:32:47;;;;;;;4.20;4.07;;;15.70;22.50;;;;;;5103064;28;20469;-84
2023/10/15 12:35:19;;;;;;;4.97;4.77;;;15.60;22.90;;;;;;5103988;28;20555;-84
2023/10/15 12:37:48;;;;;;;5.23;4.93;;;15.80;24.00;;;;;;5104393;28;20471;-84
2023/10/15 12:40:23;;;;;;;4.77;4.47;;;16.00;26.10;;;;;;5104348;28;20464;-86
2023/10/15 12:42:52;;;;;;;4.43;4.27;;;16.00;25.60;;;;;;5106188;28;20515;-83
2023/10/15 12:45:21;;;;;;;5.67;5.27;;;15.90;26.40;;;;;;5101726;28;20449;-83
2023/10/15 12:47:49;;;;;;;4.53;4.33;;;15.90;26.90;;;;;;5100619;28;20446;-84
2023/10/15 12:50:18;;;;;;;4.47;4.30;;;15.90;28.30;;;;;;5101077;28;20449;-83
2023/10/15 12:52:47;;;;;;;4.83;4.43;;;15.80;29.80;;;;;;5099817;28;20868;-83
2023/10/15 12:55:18;;;;;;;4.93;4.63;;;15.80;35.60;;;;;;5099940;28;20923;-84
2023/10/15 12:57:47;;;;;;;4.57;4.37;;;15.60;46.80;;;;;;5102761;28;20458;-84
2023/10/15 13:00:18;;;;;;;4.57;4.37;;;15.40;30.30;;;;;;5103081;28;20452;-84
2023/10/15 13:02:49;;;;;;;4.87;4.63;;;15.30;30.50;;;;;;5105399;28;20535;-82
2023/10/15 13:05:19;;;;;;;4.90;4.70;;;15.20;27.60;;;;;;5102672;28;20936;-83
2023/10/15 13:07:48;;;;;;;4.90;4.80;;;15.30;26.10;;;;;;5101810;28;20454;-85
2023/10/15 13:10:19;;;;;;;4.60;4.40;;;15.30;26.50;;;;;;5100255;28;20493;-82